Time;durP1;ratioP1;P1;durP2;ratioP2;P2;SDS_P1;SDS_P2;PMS_P1;PMS_P2;Temp;Humidity;BMP_temperature;BMP_pressure;BME280_temperature;BME280_humidity;BME280_pressure;Samples;Min_cycle;Max_cycle;Signal;HPM_P1;HPM_P2
2023/10/12 00:02:21;;;;;;;15.40;8.35;;;;;;;15.86;88.05;100882.50;5050367;28;20035;-79
2023/10/12 00:04:50;;;;;;;13.70;7.53;;;;;;;15.88;88.35;100893.97;5052330;28;20028;-79
2023/10/12 00:07:15;;;;;;;16.25;7.88;;;;;;;15.95;88.51;100893.03;5037231;28;20121;-79
2023/10/12 00:09:48;;;;;;;12.75;7.93;;;;;;;15.94;88.50;100888.66;5021429;28;20036;-79
2023/10/12 00:12:22;;;;;;;13.13;8.48;;;;;;;15.93;88.63;100896.00;5036940;28;20397;-79
2023/10/12 00:14:48;;;;;;;15.50;8.45;;;;;;;15.84;90.21;100900.03;5045445;28;20052;-79
2023/10/12 00:17:17;;;;;;;17.02;9.07;;;;;;;15.88;90.01;100895.84;5054383;28;20381;-79
2023/10/12 00:19:43;;;;;;;13.73;8.68;;;;;;;15.82;91.30;100903.00;5052568;28;20040;-79
2023/10/12 00:22:17;;;;;;;14.07;8.75;;;;;;;15.82;91.23;100886.72;5052307;28;20025;-79
2023/10/12 00:24:44;;;;;;;13.98;8.48;;;;;;;15.75;91.35;100892.25;5052163;28;20132;-79
2023/10/12 00:27:11;;;;;;;13.75;9.00;;;;;;;15.66;92.30;100901.75;5050964;28;20075;-79
2023/10/12 00:29:39;;;;;;;15.55;8.75;;;;;;;15.64;92.28;100900.34;5050734;28;20029;-79
2023/10/12 00:32:06;;;;;;;13.13;8.85;;;;;;;15.64;92.74;100903.84;5039912;28;20164;-79
2023/10/12 00:34:37;;;;;;;14.50;9.07;;;;;;;15.65;92.69;100904.69;5053662;28;20033;-78
2023/10/12 00:37:03;;;;;;;16.63;9.10;;;;;;;15.60;93.06;100906.22;5052091;28;20029;-78
2023/10/12 00:39:43;;;;;;;15.02;9.70;;;;;;;15.56;93.71;100915.03;5042432;28;20029;-78
2023/10/12 00:42:10;;;;;;;13.85;9.20;;;;;;;15.59;93.72;100920.84;5044774;28;20048;-78
2023/10/12 00:44:40;;;;;;;14.13;9.63;;;;;;;15.59;93.71;100914.59;5049263;28;20547;-79
2023/10/12 00:47:19;;;;;;;15.85;8.88;;;;;;;15.54;94.54;100911.72;5054793;28;20035;-78
2023/10/12 00:49:48;;;;;;;16.20;9.45;;;;;;;15.56;94.57;100915.84;5052583;28;20029;-78
2023/10/12 00:52:23;;;;;;;13.23;9.55;;;;;;;15.61;94.48;100918.72;5040970;28;20039;-78
2023/10/12 00:54:55;;;;;;;15.52;9.25;;;;;;;15.51;94.83;100912.19;5067550;28;20024;-78
2023/10/12 00:57:22;;;;;;;15.15;9.30;;;;;;;15.44;95.70;100906.84;5032215;28;20029;-79
2023/10/12 00:59:50;;;;;;;17.63;9.48;;;;;;;15.44;96.14;100912.28;5052937;28;20071;-79
2023/10/12 01:02:17;;;;;;;15.85;10.20;;;;;;;15.33;97.16;100923.91;5046966;28;20425;-79
2023/10/12 01:04:43;;;;;;;15.57;8.93;;;;;;;15.30;98.28;100917.03;5040787;28;20039;-78
2023/10/12 01:07:11;;;;;;;15.05;9.70;;;;;;;15.22;99.06;100920.88;5054366;28;20051;-79
2023/10/12 01:09:39;;;;;;;14.35;9.13;;;;;;;15.20;99.90;100919.44;5057981;28;20035;-78
2023/10/12 01:12:13;;;;;;;16.10;9.45;;;;;;;15.20;100.00;100914.03;5048196;28;20350;-78
2023/10/12 01:14:43;;;;;;;14.48;10.38;;;;;;;15.15;100.00;100910.09;5050748;28;20033;-78
2023/10/12 01:17:15;;;;;;;15.43;9.27;;;;;;;15.13;100.00;100912.22;5052952;28;20025;-78
2023/10/12 01:19:46;;;;;;;17.40;10.00;;;;;;;15.12;100.00;100915.97;5049483;28;20525;-78
2023/10/12 01:22:13;;;;;;;16.02;10.30;;;;;;;15.04;100.00;100918.16;5057360;28;20032;-78
2023/10/12 01:24:46;;;;;;;16.10;10.90;;;;;;;14.96;100.00;100912.00;5051812;28;20128;-78
2023/10/12 01:27:13;;;;;;;16.10;11.15;;;;;;;14.98;100.00;100920.72;5039449;28;20044;-77
2023/10/12 01:29:39;;;;;;;18.95;11.85;;;;;;;14.94;100.00;100924.94;5051572;28;20029;-78
2023/10/12 01:34:37;;;;;;;16.38;11.27;;;;;;;14.92;100.00;100932.47;5051758;28;20044;-78
2023/10/12 01:37:21;;;;;;;17.90;11.60;;;;;;;14.93;100.00;100934.13;5057969;28;20028;-77
2023/10/12 01:45:17;;;;;;;18.95;12.80;;;;;;;14.98;100.00;100942.41;5045554;28;20080;-77
2023/10/12 01:47:44;;;;;;;19.90;12.93;;;;;;;14.96;100.00;100939.09;5053072;28;20085;-78
2023/10/12 01:50:10;;;;;;;19.85;13.52;;;;;;;14.86;100.00;100941.47;5053125;28;20436;-78
2023/10/12 01:52:35;;;;;;;22.58;13.00;;;;;;;14.89;100.00;100938.31;5060700;28;20029;-78
2023/10/12 01:55:12;;;;;;;22.58;13.93;;;;;;;14.86;100.00;100946.91;5048283;28;20056;-79
2023/10/12 01:57:45;;;;;;;17.58;13.43;;;;;;;14.86;100.00;100938.75;5058382;28;20112;-79
2023/10/12 02:00:11;;;;;;;19.65;13.73;;;;;;;14.85;100.00;100931.69;5062686;28;20032;-79
2023/10/12 02:02:40;;;;;;;21.45;14.48;;;;;;;14.94;100.00;100930.34;5056529;28;20476;-79
2023/10/12 02:05:09;;;;;;;21.98;14.77;;;;;;;14.91;100.00;100919.97;5047825;28;20032;-79
2023/10/12 02:07:35;;;;;;;22.00;15.48;;;;;;;14.84;100.00;100914.59;5055513;28;20082;-79
2023/10/12 02:10:00;;;;;;;25.05;16.05;;;;;;;14.78;100.00;100925.53;5063156;28;20029;-79
2023/10/12 02:12:26;;;;;;;22.20;15.40;;;;;;;14.80;100.00;100935.06;5052552;28;20041;-79
2023/10/12 02:14:52;;;;;;;26.08;16.67;;;;;;;14.83;100.00;100928.38;5047882;28;20111;-79
2023/10/12 02:17:18;;;;;;;27.30;16.40;;;;;;;14.81;100.00;100936.72;5056885;28;20111;-79
2023/10/12 02:19:43;;;;;;;24.50;16.85;;;;;;;14.78;100.00;100942.59;5053376;28;20444;-79
2023/10/12 02:22:19;;;;;;;22.48;16.25;;;;;;;14.80;100.00;100945.09;5064480;28;20024;-79
2023/10/12 02:24:58;;;;;;;25.65;17.08;;;;;;;14.86;100.00;100955.03;5055732;28;20150;-79
2023/10/12 02:27:24;;;;;;;22.67;16.58;;;;;;;14.93;100.00;100939.53;5052643;28;20028;-78
2023/10/12 02:29:50;;;;;;;26.67;17.33;;;;;;;14.93;100.00;100938.69;5050384;28;20033;-79
2023/10/12 02:32:17;;;;;;;25.50;17.15;;;;;;;14.94;100.00;100943.06;5052036;28;20047;-79
2023/10/12 02:34:43;;;;;;;27.92;17.83;;;;;;;14.95;100.00;100947.44;5049711;28;20068;-79
2023/10/12 02:39:40;;;;;;;26.52;16.83;;;;;;;14.96;100.00;100943.69;5050719;28;20071;-79
2023/10/12 02:47:12;;;;;;;25.85;17.85;;;;;;;14.95;100.00;100959.13;5055011;28;20070;-79
2023/10/12 02:49:41;;;;;;;26.65;17.42;;;;;;;14.89;100.00;100957.28;5048395;28;20025;-79
2023/10/12 02:52:10;;;;;;;23.55;17.38;;;;;;;14.88;100.00;100930.44;5039608;28;20088;-79
2023/10/12 02:54:51;;;;;;;23.77;16.60;;;;;;;14.89;100.00;100943.75;5052047;28;20036;-79
2023/10/12 02:57:31;;;;;;;26.73;17.33;;;;;;;14.92;100.00;100928.91;5049657;28;20496;-78
2023/10/12 03:00:00;;;;;;;25.45;16.27;;;;;;;14.90;100.00;100934.56;5049978;28;20025;-79
2023/10/12 03:02:34;;;;;;;25.35;16.38;;;;;;;14.95;100.00;100934.72;5051963;28;20177;-79
2023/10/12 03:05:06;;;;;;;21.70;15.88;;;;;;;14.95;100.00;100942.00;5047788;28;20427;-79
2023/10/12 03:07:35;;;;;;;23.33;15.68;;;;;;;15.01;100.00;100941.94;5050286;28;20059;-79
2023/10/12 03:10:05;;;;;;;25.27;17.00;;;;;;;14.93;100.00;100950.38;5053335;28;20385;-79
2023/10/12 03:12:34;;;;;;;23.10;15.48;;;;;;;15.00;100.00;100948.41;5051350;28;20046;-79
2023/10/12 03:15:12;;;;;;;20.85;14.75;;;;;;;15.09;100.00;100950.84;5052055;28;20109;-78
2023/10/12 03:17:45;;;;;;;22.20;15.63;;;;;;;15.02;100.00;100956.34;5054831;28;20029;-78
2023/10/12 03:20:23;;;;;;;25.50;15.82;;;;;;;15.01;100.00;100960.91;5052821;23;20053;-79
2023/10/12 03:22:52;;;;;;;23.70;15.82;;;;;;;14.93;100.00;100966.66;5033593;28;20427;-79
2023/10/12 03:25:33;;;;;;;19.92;15.35;;;;;;;15.01;100.00;100966.34;5035619;28;20045;-79
2023/10/12 03:28:11;;;;;;;22.75;15.80;;;;;;;15.00;100.00;100974.72;5037281;28;20359;-79
2023/10/12 03:30:43;;;;;;;22.65;16.02;;;;;;;15.04;100.00;100980.50;5037815;28;20048;-79
2023/10/12 03:33:11;;;;;;;20.20;15.95;;;;;;;14.98;100.00;100963.25;5032699;28;20029;-79
2023/10/12 03:35:44;;;;;;;22.50;16.67;;;;;;;14.97;100.00;100972.44;5022595;28;20030;-79
2023/10/12 03:38:12;;;;;;;25.63;17.13;;;;;;;14.87;100.00;100970.25;5029922;28;20079;-79
2023/10/12 03:43:27;;;;;;;27.40;18.27;;;;;;;14.83;100.00;100974.44;5020637;28;20122;-79
2023/10/12 03:46:17;;;;;;;21.65;15.20;;;;;;;14.84;100.00;100970.69;5030347;28;20096;-79
2023/10/12 03:51:37;;;;;;;5.47;4.03;;;;;;;14.58;100.00;100983.38;5018537;28;20129;-79
2023/10/12 03:54:11;;;;;;;;;;;;;;;14.46;100.00;100977.03;5025160;28;20033;-79
2023/10/12 03:56:40;;;;;;;4.65;3.55;;;;;;;14.44;100.00;100952.03;5025902;28;19968;-79
2023/10/12 03:59:08;;;;;;;4.90;3.30;;;;;;;14.28;100.00;100943.41;5030440;28;20049;-78
2023/10/12 04:01:39;;;;;;;3.63;2.72;;;;;;;14.22;100.00;100938.88;5027358;28;20033;-79
2023/10/12 04:04:27;;;;;;;3.47;2.50;;;;;;;14.13;100.00;100932.03;5018816;28;20073;-78
2023/10/12 04:09:32;;;;;;;3.08;2.28;;;;;;;14.02;100.00;100945.22;5029029;28;20148;-79
2023/10/12 04:12:15;;;;;;;3.55;2.20;;;;;;;14.02;100.00;100972.31;5024027;28;20033;-79
2023/10/12 04:14:54;;;;;;;3.05;2.05;;;;;;;14.01;100.00;100975.25;5037924;28;20358;-79
2023/10/12 04:28:00;;;;;;;5.32;2.83;;;;;;;13.98;100.00;100984.59;5030603;28;20140;-78
2023/10/12 04:31:20;;;;;;;2.88;2.45;;;;;;;13.94;100.00;100986.09;5033711;28;20033;-79
2023/10/12 04:37:08;;;;;;;3.30;2.15;;;;;;;14.09;100.00;100988.50;4963813;28;20169;-78
2023/10/12 04:39:27;;;;;;;2.92;2.63;;;;;;;14.01;100.00;100976.06;4955615;28;20034;-78
2023/10/12 04:46:49;;;;;;;2.90;2.55;;;;;;;13.98;100.00;100981.91;5021693;28;20034;-78
2023/10/12 04:51:50;;;;;;;3.22;2.50;;;;;;;13.96;100.00;100992.09;5021433;28;20496;-78
2023/10/12 04:54:23;;;;;;;3.03;2.53;;;;;;;14.02;100.00;100991.25;5030637;28;20029;-78
2023/10/12 04:57:13;;;;;;;4.05;2.60;;;;;;;13.99;100.00;100980.84;5034863;28;20323;-78
2023/10/12 04:59:51;;;;;;;4.05;3.08;;;;;;;13.95;100.00;100987.72;5018891;28;20386;-78
2023/10/12 05:02:38;;;;;;;4.00;3.08;;;;;;;13.91;100.00;100983.81;5040113;28;20032;-78
2023/10/12 05:07:56;;;;;;;3.40;2.80;;;;;;;13.87;100.00;100993.41;5039718;28;20154;-78
2023/10/12 05:13:01;;;;;;;3.45;2.95;;;;;;;13.95;100.00;101010.22;5028118;28;20044;-78
2023/10/12 05:15:34;;;;;;;4.95;3.20;;;;;;;13.97;100.00;100999.19;5020143;28;20488;-78
2023/10/12 05:17:59;;;;;;;4.43;3.13;;;;;;;13.96;100.00;101011.03;5033401;28;20412;-78
2023/10/12 05:20:24;;;;;;;3.30;3.00;;;;;;;13.94;100.00;101007.75;5026995;28;20037;-78
2023/10/12 05:22:58;;;;;;;5.03;3.28;;;;;;;13.95;100.00;100998.56;5030640;28;20060;-76
2023/10/12 05:25:32;;;;;;;4.40;3.08;;;;;;;13.94;100.00;101008.56;5030622;28;20052;-78
2023/10/12 05:28:14;;;;;;;5.60;3.35;;;;;;;13.95;100.00;100990.44;5032457;28;20069;-78
2023/10/12 05:30:46;;;;;;;4.60;3.60;;;;;;;13.94;100.00;100995.03;5021577;28;20018;-78
2023/10/12 05:33:28;;;;;;;4.07;3.47;;;;;;;13.94;100.00;101002.34;5031527;28;20037;-78
2023/10/12 05:35:57;;;;;;;5.32;3.40;;;;;;;13.95;100.00;101006.69;5031646;28;20104;-78
2023/10/12 05:38:34;;;;;;;5.85;3.55;;;;;;;13.94;100.00;101011.28;5018651;28;20072;-78
2023/10/12 05:41:00;;;;;;;;;;;;;;;13.91;100.00;101013.59;5032375;28;20032;-78
2023/10/12 05:43:31;;;;;;;4.60;3.53;;;;;;;13.95;100.00;101017.50;5032978;28;19913;-78
2023/10/12 05:46:01;;;;;;;4.18;3.58;;;;;;;13.95;100.00;101020.22;5031177;28;20382;-77
2023/10/12 05:48:27;;;;;;;4.10;3.22;;;;;;;13.96;100.00;101019.16;5025763;28;20497;-78
2023/10/12 05:50:56;;;;;;;5.07;4.07;;;;;;;13.97;100.00;101023.53;5032141;28;20053;-80
2023/10/12 05:53:21;;;;;;;4.90;4.18;;;;;;;13.98;100.00;101018.97;5029943;28;20151;-78
2023/10/12 05:55:49;;;;;;;6.22;4.40;;;;;;;14.02;100.00;101031.03;5027085;28;20029;-77
2023/10/12 05:58:15;;;;;;;4.72;4.22;;;;;;;14.03;100.00;101030.81;5022507;28;20064;-77
2023/10/12 06:00:45;;;;;;;5.07;4.10;;;;;;;14.02;100.00;101034.56;5029537;28;20576;-77
2023/10/12 06:03:31;;;;;;;6.93;4.90;;;;;;;13.99;100.00;101036.88;5036787;28;20488;-81
2023/10/12 06:05:56;;;;;;;5.78;5.18;;;;;;;13.93;100.00;101039.38;5028253;28;20096;-81
2023/10/12 06:08:25;;;;;;;9.63;4.72;;;;;;;13.91;100.00;101043.38;5041483;28;20029;-81
2023/10/12 06:10:56;;;;;;;6.47;4.60;;;;;;;13.94;100.00;101049.16;5022826;28;20040;-80
2023/10/12 06:13:30;;;;;;;127.03;8.00;;;;;;;13.89;100.00;101051.69;5032552;28;20025;-81
2023/10/12 06:15:55;;;;;;;2.47;2.00;;;;;;;13.80;100.00;101059.19;5026169;28;20037;-78
2023/10/12 06:18:30;;;;;;;1.83;1.30;;;;;;;13.56;100.00;101070.72;5027525;28;20125;-78
2023/10/12 06:20:58;;;;;;;1.40;1.30;;;;;;;13.37;100.00;101072.38;5024163;28;20390;-78
2023/10/12 06:23:24;;;;;;;1.40;1.30;;;;;;;13.30;100.00;101077.81;5023200;28;20107;-77
2023/10/12 06:35:35;;;;;;;2.05;1.70;;;;;;;12.79;100.00;101082.78;5034182;28;20045;-76
2023/10/12 06:38:22;;;;;;;2.00;1.80;;;;;;;12.64;100.00;101091.06;5040122;28;20034;-77
2023/10/12 06:50:22;;;;;;;2.42;1.60;;;;;;;12.26;100.00;101114.03;5027667;28;20113;-77
2023/10/12 06:52:57;;;;;;;2.22;1.60;;;;;;;12.26;100.00;101115.91;4992090;28;20037;-77
2023/10/12 06:55:28;;;;;;;2.17;1.70;;;;;;;12.29;100.00;101120.88;4991680;28;20038;-77
2023/10/12 07:03:49;;;;;;;3.85;1.90;;;;;;;12.08;100.00;101124.53;5026264;23;20068;-77
2023/10/12 07:07:27;;;;;;;3.90;2.03;;;;;;;12.11;100.00;101132.22;5018875;28;20030;-77
2023/10/12 07:12:59;;;;;;;6.00;1.88;;;;;;;11.93;100.00;101146.22;5035212;28;20188;-77
2023/10/12 07:26:50;;;;;;;6.15;2.40;;;;;;;11.93;100.00;101160.53;5046861;28;20040;-77
2023/10/12 07:29:35;;;;;;;5.18;2.03;;;;;;;11.90;100.00;101155.53;5031024;28;20049;-77
2023/10/12 07:32:38;;;;;;;6.95;2.28;;;;;;;11.93;100.00;101170.50;4987057;28;20073;-77
2023/10/12 07:35:22;;;;;;;5.82;2.00;;;;;;;11.95;100.00;101168.44;5041250;28;20113;-77
2023/10/12 07:38:34;;;;;;;3.67;1.90;;;;;;;11.89;100.00;101170.06;5010273;28;20481;-76
2023/10/12 07:44:27;;;;;;;4.97;2.50;;;;;;;11.90;100.00;101182.53;4987042;28;20576;-76
2023/10/12 07:47:40;;;;;;;6.65;2.08;;;;;;;11.86;100.00;101185.81;4983280;28;20062;-76
2023/10/12 08:00:41;;;;;;;6.10;2.78;;;;;;;11.88;100.00;101198.06;4944922;28;21080;-77
2023/10/12 08:03:25;;;;;;;4.75;2.75;;;;;;;11.86;100.00;101197.44;4946769;29;20046;-76
2023/10/12 08:15:20;;;;;;;5.68;3.45;;;;;;;12.01;100.00;101199.22;4857285;29;20033;-77
2023/10/12 08:18:51;;;;;;;5.82;3.38;;;;;;;11.95;100.00;101198.97;4945990;28;20522;-77
2023/10/12 08:23:50;;;;;;;4.15;2.92;;;;;;;11.99;100.00;101207.50;5046802;28;20118;-76
2023/10/12 08:32:15;;;;;;;3.75;2.47;;;;;;;12.19;100.00;101213.03;4983704;28;20431;-77
2023/10/12 08:35:10;;;;;;;4.15;2.60;;;;;;;12.11;100.00;101210.50;5031881;28;20067;-77
2023/10/12 08:37:35;;;;;;;3.83;2.42;;;;;;;12.14;100.00;101212.81;5046686;28;20052;-77
2023/10/12 08:40:26;;;;;;;3.53;2.70;;;;;;;12.12;100.00;101214.88;5037853;28;20420;-77
2023/10/12 08:42:58;;;;;;;3.13;2.20;;;;;;;12.15;100.00;101219.03;5049902;28;20226;-76
2023/10/12 08:45:23;;;;;;;;;;;;;;;12.17;100.00;101222.34;5058590;28;20036;-76
2023/10/12 08:47:49;;;;;;;2.17;1.60;;;;;;;12.24;100.00;101213.25;5048072;28;19924;-77
2023/10/12 08:52:56;;;;;;;3.42;1.90;;;;;;;12.38;100.00;101216.03;5051116;28;20078;-77
2023/10/12 08:55:24;;;;;;;2.17;1.73;;;;;;;12.41;100.00;101211.09;5051563;28;20090;-77
2023/10/12 08:58:01;;;;;;;2.47;2.05;;;;;;;12.40;100.00;101217.50;5052976;28;20051;-77
2023/10/12 09:03:00;;;;;;;4.20;2.50;;;;;;;12.32;100.00;101211.44;5051375;28;20469;-77
2023/10/12 09:05:28;;;;;;;3.85;2.75;;;;;;;12.26;100.00;101207.69;5052792;28;20108;-77
2023/10/12 09:08:07;;;;;;;3.88;2.70;;;;;;;12.26;100.00;101213.91;5052717;28;20028;-77
2023/10/12 09:11:02;;;;;;;2.30;2.10;;;;;;;12.26;100.00;101215.78;5039387;28;20100;-77
2023/10/12 09:13:35;;;;;;;3.13;2.40;;;;;;;12.38;100.00;101213.31;5051396;28;20033;-77
2023/10/12 09:16:07;;;;;;;2.88;2.22;;;;;;;12.32;100.00;101209.56;5039751;28;20076;-77
2023/10/12 09:21:39;;;;;;;3.08;2.30;;;;;;;12.49;100.00;101215.47;4937201;28;20146;-77
2023/10/12 09:24:06;;;;;;;3.35;2.70;;;;;;;12.49;100.00;101218.19;4999045;28;20037;-77
2023/10/12 09:26:34;;;;;;;3.75;2.80;;;;;;;12.57;100.00;101215.28;5038831;28;20543;-77
2023/10/12 09:36:37;;;;;;;3.10;2.35;;;;;;;12.63;100.00;101191.22;5035094;28;20040;-78
2023/10/12 09:39:03;;;;;;;2.50;2.30;;;;;;;12.66;100.00;101186.25;5053965;28;20591;-80
2023/10/12 09:41:32;;;;;;;3.58;2.28;;;;;;;12.68;100.00;101199.56;5039014;28;20021;-78
2023/10/12 09:43:58;;;;;;;2.65;2.00;;;;;;;12.76;100.00;101199.38;5043586;28;20020;-77
2023/10/12 09:46:26;;;;;;;2.45;1.98;;;;;;;12.71;100.00;101204.53;5035851;28;20059;-77
2023/10/12 09:48:58;;;;;;;3.55;1.90;;;;;;;12.74;100.00;101204.13;5026075;28;20091;-78
2023/10/12 09:51:25;;;;;;;4.22;2.00;;;;;;;12.82;100.00;101201.25;5042598;28;20037;-77
2023/10/12 09:53:59;;;;;;;3.10;2.10;;;;;;;12.81;100.00;101201.44;5032431;28;20039;-79
2023/10/12 09:56:34;;;;;;;3.28;2.25;;;;;;;12.79;100.00;101207.06;5032410;28;20028;-79
2023/10/12 09:59:13;;;;;;;2.43;2.10;;;;;;;12.80;100.00;101206.03;5040308;28;20044;-79
2023/10/12 10:07:15;;;;;;;3.35;2.50;;;;;;;13.10;100.00;101208.38;5042342;28;20052;-78
2023/10/12 10:09:48;;;;;;;2.58;2.17;;;;;;;13.25;100.00;101204.66;5017883;28;20042;-79
2023/10/12 10:12:16;;;;;;;3.05;2.70;;;;;;;13.21;100.00;101204.25;5051179;28;20655;-78
2023/10/12 10:14:44;;;;;;;2.67;2.47;;;;;;;13.19;100.00;101207.16;5047387;28;20041;-78
2023/10/12 10:17:16;;;;;;;3.00;2.72;;;;;;;13.30;100.00;101204.88;5049208;28;20465;-80
2023/10/12 10:19:51;;;;;;;3.28;2.92;;;;;;;13.26;100.00;101218.00;5054523;28;20036;-80
2023/10/12 10:22:16;;;;;;;4.60;3.03;;;;;;;13.25;100.00;101210.06;5043141;28;20033;-79
2023/10/12 10:24:46;;;;;;;3.97;3.00;;;;;;;13.22;100.00;101199.69;5050252;28;20052;-80
2023/10/12 10:27:12;;;;;;;5.68;3.42;;;;;;;13.26;100.00;101203.63;5060584;28;20033;-81
2023/10/12 10:29:53;;;;;;;3.92;3.10;;;;;;;13.32;100.00;101205.50;5049422;28;20024;-80
2023/10/12 10:32:29;;;;;;;3.40;3.10;;;;;;;13.26;100.00;101209.88;5049640;28;20079;-80
2023/10/12 10:34:57;;;;;;;4.55;3.22;;;;;;;13.21;100.00;101206.13;5051331;28;20025;-78
2023/10/12 10:37:39;;;;;;;4.10;3.25;;;;;;;13.24;100.00;101203.03;5049678;28;20053;-80
2023/10/12 10:40:08;;;;;;;4.25;3.17;;;;;;;13.31;100.00;101210.09;5055686;28;20028;-78
2023/10/12 10:42:36;;;;;;;4.63;3.28;;;;;;;13.34;100.00;101203.44;5052975;28;20036;-79
2023/10/12 10:45:12;;;;;;;4.38;2.78;;;;;;;13.31;100.00;101206.56;5058529;28;20521;-80
2023/10/12 10:47:38;;;;;;;2.95;2.65;;;;;;;13.36;100.00;101198.66;5048239;28;20112;-80
2023/10/12 10:50:04;;;;;;;3.10;2.80;;;;;;;13.42;100.00;101197.03;5059659;28;20097;-81
2023/10/12 10:52:32;;;;;;;3.13;2.83;;;;;;;13.40;100.00;101199.94;5051790;28;20025;-80
2023/10/12 10:54:59;;;;;;;4.18;2.80;;;;;;;13.41;100.00;101192.66;5050374;28;20055;-80
2023/10/12 10:57:25;;;;;;;3.70;3.05;;;;;;;13.44;100.00;101193.06;5032301;28;20031;-80
2023/10/12 10:59:51;;;;;;;4.68;2.80;;;;;;;13.43;100.00;101196.81;5051397;28;20025;-80
2023/10/12 11:02:17;;;;;;;4.25;2.70;;;;;;;13.56;100.00;101187.03;5069881;28;20024;-81
2023/10/12 11:04:46;;;;;;;3.15;2.47;;;;;;;13.66;100.00;101190.16;5068823;28;20035;-79
2023/10/12 11:07:17;;;;;;;3.85;2.50;;;;;;;13.68;100.00;101185.38;5053008;28;20029;-79
2023/10/12 11:10:06;;;;;;;3.28;2.70;;;;;;;13.85;100.00;101183.06;5048966;28;20021;-79
2023/10/12 11:12:32;;;;;;;3.67;2.90;;;;;;;13.95;100.00;101188.03;5050359;28;20036;-80
2023/10/12 11:15:01;;;;;;;3.55;2.75;;;;;;;14.08;100.00;101182.59;5051374;28;20032;-79
2023/10/12 11:17:30;;;;;;;3.10;2.75;;;;;;;14.13;100.00;101179.25;5046718;28;20033;-78
2023/10/12 11:19:58;;;;;;;4.22;2.88;;;;;;;14.30;100.00;101184.19;5053055;28;20039;-79
2023/10/12 11:22:26;;;;;;;4.50;2.80;;;;;;;14.40;100.00;101179.16;5055023;28;20094;-80
2023/10/12 11:27:35;;;;;;;2.95;2.72;;;;;;;14.60;100.00;101170.94;5803321;22;20057;-78
2023/10/12 11:30:07;;;;;;;5.03;3.13;;;;;;;14.70;100.00;101179.47;5042607;28;20037;-79
2023/10/12 11:32:51;;;;;;;4.50;2.80;;;;;;;14.69;100.00;101177.78;5030719;28;20021;-78
2023/10/12 11:35:16;;;;;;;3.47;3.13;;;;;;;14.65;100.00;101184.66;5031339;28;20184;-78
2023/10/12 11:37:42;;;;;;;4.00;3.28;;;;;;;14.59;100.00;101177.41;5029316;28;20121;-78
2023/10/12 11:40:07;;;;;;;4.65;3.72;;;;;;;14.52;100.00;101169.31;5028228;28;20594;-78
2023/10/12 11:42:33;;;;;;;3.65;3.35;;;;;;;14.59;100.00;101168.44;5030290;28;20030;-79
2023/10/12 11:44:58;;;;;;;5.78;4.15;;;;;;;14.64;100.00;101158.63;5029457;28;20047;-79
2023/10/12 11:47:24;;;;;;;6.03;4.22;;;;;;;14.63;100.00;101158.84;5010898;28;20102;-79
2023/10/12 11:49:55;;;;;;;4.47;3.80;;;;;;;14.65;100.00;101144.00;5030394;28;20025;-78
2023/10/12 11:52:32;;;;;;;4.85;4.43;;;;;;;14.71;100.00;101147.78;5029452;28;20135;-77
2023/10/12 11:55:18;;;;;;;5.25;4.07;;;;;;;14.82;100.00;101154.41;5031978;28;20025;-78
2023/10/12 11:57:59;;;;;;;5.70;5.13;;;;;;;15.07;100.00;101151.72;5033358;28;20491;-79
2023/10/12 12:00:36;;;;;;;5.18;4.53;;;;;;;15.15;100.00;101143.31;5031242;28;20029;-79
2023/10/12 12:03:08;;;;;;;6.32;4.65;;;;;;;15.23;100.00;101146.81;5031564;28;20025;-78
2023/10/12 12:05:36;;;;;;;6.35;5.15;;;;;;;15.35;100.00;101141.50;5031068;28;20037;-79
2023/10/12 12:08:06;;;;;;;6.15;5.53;;;;;;;15.37;100.00;101142.09;5030301;28;20116;-79
2023/10/12 12:13:08;;;;;;;7.63;5.97;;;;;;;15.74;100.00;101150.31;5029477;28;20040;-79
2023/10/12 12:15:34;;;;;;;8.00;6.70;;;;;;;15.58;100.00;101143.59;5029799;28;20031;-79
2023/10/12 12:18:04;;;;;;;8.00;5.90;;;;;;;15.62;100.00;101133.91;5029151;28;20105;-79
2023/10/12 12:20:38;;;;;;;8.40;6.85;;;;;;;15.68;100.00;101143.06;5027750;28;20107;-79
2023/10/12 12:23:04;;;;;;;9.02;6.20;;;;;;;15.78;100.00;101140.66;5030028;28;20022;-79
2023/10/12 12:25:33;;;;;;;8.02;6.60;;;;;;;15.74;100.00;101134.88;5032660;28;20026;-79
2023/10/12 12:28:03;;;;;;;7.28;6.57;;;;;;;15.68;100.00;101134.94;5031576;28;20307;-79
2023/10/12 12:30:46;;;;;;;7.50;6.70;;;;;;;15.58;100.00;101128.13;5037538;28;20092;-79
2023/10/12 12:36:21;;;;;;;9.07;7.32;;;;;;;15.50;100.00;101125.72;5012742;28;20040;-79
2023/10/12 12:39:01;;;;;;;9.35;7.43;;;;;;;15.38;100.00;101124.75;5014684;28;20033;-79
2023/10/12 12:41:29;;;;;;;11.20;7.85;;;;;;;15.26;100.00;101130.91;5025684;28;20065;-79
2023/10/12 12:44:16;;;;;;;11.23;7.70;;;;;;;15.21;100.00;101138.88;5029680;28;20310;-80
2023/10/12 12:46:42;;;;;;;9.95;8.15;;;;;;;15.18;100.00;101141.22;5029569;28;20032;-78
2023/10/12 12:49:13;;;;;;;12.38;8.20;;;;;;;15.07;100.00;101140.88;5028488;28;20033;-78
2023/10/12 12:51:39;;;;;;;11.98;8.70;;;;;;;15.02;100.00;101135.28;5029093;28;20128;-78
2023/10/12 12:54:23;;;;;;;13.40;8.73;;;;;;;15.00;100.00;101135.47;5029169;28;20030;-78
2023/10/12 12:57:32;;;;;;;10.90;8.73;;;;;;;14.97;100.00;101154.06;5028982;28;20528;-79
2023/10/12 13:00:38;;;;;;;9.45;8.23;;;;;;;15.00;100.00;101146.31;5027044;28;20033;-79
2023/10/12 13:03:33;;;;;;;9.68;8.68;;;;;;;14.90;100.00;101146.00;5031058;28;20021;-79
2023/10/12 13:06:17;;;;;;;9.60;8.60;;;;;;;14.86;100.00;101150.19;4967821;28;20307;-79
2023/10/12 13:08:42;;;;;;;10.43;8.73;;;;;;;14.90;100.00;101154.13;4966333;28;20113;-79
2023/10/12 13:11:36;;;;;;;11.68;9.20;;;;;;;14.90;100.00;101147.88;5038935;28;20022;-80
2023/10/12 13:14:18;;;;;;;12.07;8.75;;;;;;;14.95;100.00;101137.19;5047921;28;20151;-80
2023/10/12 13:16:54;;;;;;;12.77;9.63;;;;;;;15.00;100.00;101140.91;5035243;28;20025;-80
2023/10/12 13:19:31;;;;;;;12.57;9.75;;;;;;;14.94;100.00;101130.97;5029120;28;20469;-79
2023/10/12 13:21:56;;;;;;;12.55;9.82;;;;;;;14.93;100.00;101129.28;5224268;22;20061;-81
2023/10/12 13:24:35;;;;;;;11.27;10.18;;;;;;;14.84;100.00;101120.59;5050609;28;20033;-81
2023/10/12 13:30:30;;;;;;;13.82;11.10;;;;;;;14.78;100.00;101109.81;5051700;28;20091;-81
2023/10/12 13:32:59;;;;;;;15.15;11.13;;;;;;;14.76;100.00;101096.44;5052873;28;20044;-81
2023/10/12 13:38:49;;;;;;;16.17;12.40;;;;;;;14.77;100.00;101116.28;5051590;28;20048;-81
2023/10/12 13:41:43;;;;;;;14.80;11.73;;;;;;;14.88;100.00;101120.97;5053202;28;20025;-81
2023/10/12 13:44:25;;;;;;;15.32;12.13;;;;;;;14.91;100.00;101107.00;5052951;28;20025;-80
2023/10/12 13:47:18;;;;;;;17.00;12.63;;;;;;;14.91;100.00;101104.28;5052454;28;20021;-80
2023/10/12 13:50:11;;;;;;;16.63;12.23;;;;;;;14.94;100.00;101095.72;5051884;28;20029;-80
2023/10/12 13:52:53;;;;;;;14.80;11.77;;;;;;;14.92;100.00;101092.38;5050931;28;20025;-80
2023/10/12 13:55:35;;;;;;;18.17;12.50;;;;;;;14.91;100.00;101104.28;5033005;28;20040;-80
2023/10/12 13:58:14;;;;;;;18.15;12.20;;;;;;;14.93;100.00;101104.03;5043563;28;20317;-79
2023/10/12 14:00:39;;;;;;;20.05;13.40;;;;;;;14.90;100.00;101102.63;5049490;28;20028;-79
2023/10/12 14:03:29;;;;;;;16.02;12.55;;;;;;;14.93;100.00;101101.34;5052709;28;20027;-79
2023/10/12 14:05:57;;;;;;;16.45;12.15;;;;;;;14.92;100.00;101103.22;5069128;22;20061;-81
2023/10/12 14:08:23;;;;;;;18.33;13.07;;;;;;;14.92;100.00;101107.81;5031288;28;20095;-81
2023/10/12 14:10:51;;;;;;;18.08;13.23;;;;;;;14.90;100.00;101116.19;5029746;28;20025;-82
2023/10/12 14:13:17;;;;;;;15.65;12.63;;;;;;;14.94;100.00;101120.13;5030684;28;20060;-81
2023/10/12 14:15:48;;;;;;;16.73;13.10;;;;;;;14.93;100.00;101133.88;5033715;28;20571;-82
2023/10/12 14:18:16;;;;;;;18.42;13.25;;;;;;;14.90;100.00;101127.00;5033006;28;20466;-82
2023/10/12 14:20:44;;;;;;;21.95;13.93;;;;;;;14.88;100.00;101126.41;5028045;28;20036;-82